createdAt,value
2022-08-17T00:02:25.165Z,81.25
2022-08-17T00:04:54.763Z,82.29
2022-08-17T00:07:22.361Z,81.69
2022-08-17T00:09:49.410Z,82.04
2022-08-17T00:12:43.565Z,84.08
2022-08-17T00:15:06.174Z,85.29
2022-08-17T00:17:35.829Z,85.58
2022-08-17T00:20:04.820Z,85.70
2022-08-17T00:22:36.463Z,86.02
2022-08-17T00:25:16.961Z,86.99
2022-08-17T00:27:44.003Z,85.72
2022-08-17T00:30:12.635Z,85.40
2022-08-17T00:33:11.902Z,85.18
2022-08-17T00:35:33.869Z,85.27
2022-08-17T00:38:00.825Z,86.23
2022-08-17T00:40:40.739Z,85.32
2022-08-17T00:43:19.496Z,85.11
2022-08-17T00:45:47.447Z,85.46
2022-08-17T00:48:29.661Z,85.68
2022-08-17T00:51:09.383Z,85.56
2022-08-17T00:53:45.965Z,85.60
2022-08-17T00:56:21.115Z,86.10
2022-08-17T00:58:52.291Z,86.52
2022-08-17T01:01:22.001Z,86.02
2022-08-17T01:03:52.548Z,86.07
2022-08-17T01:06:24.601Z,86.33
2022-08-17T01:08:57.283Z,85.39
2022-08-17T01:11:25.645Z,84.94
2022-08-17T01:13:52.813Z,84.85
2022-08-17T01:16:26.535Z,84.75
2022-08-17T01:19:02.820Z,85.15
2022-08-17T01:21:34.363Z,85.87
2022-08-17T01:24:02.401Z,85.63
2022-08-17T01:26:32.935Z,86.47
2022-08-17T01:29:02.346Z,87.88
2022-08-17T01:31:41.535Z,89.41
2022-08-17T01:34:11.159Z,89.90
2022-08-17T01:36:41.013Z,89.82
2022-08-17T01:39:27.028Z,89.43
2022-08-17T01:41:58.711Z,88.63
2022-08-17T01:44:26.838Z,88.29
2022-08-17T01:46:55.056Z,89.22
2022-08-17T01:49:23.221Z,89.37
2022-08-17T01:51:50.444Z,88.93
2022-08-17T01:54:19.616Z,89.10
2022-08-17T01:56:49.612Z,89.71
2022-08-17T01:59:18.933Z,88.56
2022-08-17T02:01:47.050Z,88.93
2022-08-17T02:04:14.913Z,87.82
2022-08-17T02:06:54.125Z,87.56
2022-08-17T02:09:29.957Z,86.68
2022-08-17T02:11:59.731Z,86.91
2022-08-17T02:14:27.582Z,87.26
2022-08-17T02:16:54.715Z,89.78
2022-08-17T02:19:22.284Z,91.54
2022-08-17T02:21:52.946Z,93.15
2022-08-17T02:25:00.094Z,93.86
2022-08-17T02:27:15.081Z,95.15
2022-08-17T02:29:42.128Z,95.07
2022-08-17T02:32:27.229Z,95.61
2022-08-17T02:34:59.635Z,95.05
2022-08-17T02:37:28.441Z,94.96
2022-08-17T02:39:57.145Z,94.29
2022-08-17T02:42:36.473Z,94.55
2022-08-17T02:45:08.963Z,93.55
2022-08-17T02:47:36.692Z,93.08
2022-08-17T02:50:06.242Z,91.86
2022-08-17T02:52:43.079Z,92.55
2022-08-17T02:55:20.563Z,93.56
2022-08-17T02:57:48.322Z,92.59
2022-08-17T03:00:29.608Z,92.10
2022-08-17T03:02:57.545Z,91.99
2022-08-17T03:05:28.062Z,93.73
2022-08-17T03:07:55.127Z,94.49
2022-08-17T03:10:24.620Z,95.86
2022-08-17T03:12:52.973Z,97.86
2022-08-17T03:15:31.467Z,98.16
2022-08-17T03:17:59.664Z,99.32
2022-08-17T03:20:29.031Z,98.76
2022-08-17T03:23:02.781Z,99.68
2022-08-17T03:25:44.003Z,99.02
2022-08-17T03:28:14.468Z,99.96
2022-08-17T03:30:41.811Z,98.71
2022-08-17T03:33:12.606Z,98.51
2022-08-17T03:35:41.038Z,98.43
2022-08-17T03:38:10.708Z,98.32
2022-08-17T03:40:56.568Z,97.77
2022-08-17T03:43:30.436Z,97.98
2022-08-17T03:46:27.963Z,97.89
2022-08-17T03:49:23.687Z,96.63
2022-08-17T03:52:09.085Z,96.84
2022-08-17T03:54:54.458Z,96.39
2022-08-17T03:57:21.620Z,95.97
2022-08-17T03:59:49.502Z,95.96
2022-08-17T04:02:24.981Z,94.42
2022-08-17T04:04:52.618Z,94.73
2022-08-17T04:07:25.996Z,94.21
2022-08-17T04:09:53.222Z,94.34
2022-08-17T04:12:23.166Z,94.95
2022-08-17T04:14:53.347Z,96.80
2022-08-17T04:17:27.993Z,97.46
2022-08-17T04:19:55.844Z,97.61
2022-08-17T04:22:33.343Z,97.81
2022-08-17T04:25:17.227Z,96.43
2022-08-17T04:27:44.421Z,96.29
2022-08-17T04:30:12.387Z,94.91
2022-08-17T04:33:08.717Z,94.60
2022-08-17T04:35:43.444Z,95.57
2022-08-17T04:38:15.161Z,95.44
2022-08-17T04:41:01.713Z,94.04
2022-08-17T04:43:31.015Z,95.28
2022-08-17T04:46:10.457Z,93.55
2022-08-17T04:48:46.841Z,92.66
2022-08-17T04:51:20.928Z,91.19
2022-08-17T04:53:54.910Z,91.77
2022-08-17T04:56:25.816Z,92.82
2022-08-17T04:58:56.978Z,92.51
2022-08-17T05:01:28.057Z,92.31
2022-08-17T05:04:01.891Z,93.32
2022-08-17T05:06:49.820Z,93.61
2022-08-17T05:09:17.862Z,91.00
2022-08-17T05:11:46.610Z,88.32
2022-08-17T05:14:14.158Z,87.16
2022-08-17T05:16:41.348Z,86.15
2022-08-17T05:19:08.355Z,80.23
2022-08-17T05:21:35.363Z,76.92
2022-08-17T05:24:03.706Z,72.57
2022-08-17T05:26:36.691Z,69.34
2022-08-17T05:29:05.273Z,66.03
2022-08-17T05:31:32.261Z,67.06
2022-08-17T05:33:59.650Z,67.14
2022-08-17T05:36:38.026Z,64.54
2022-08-17T05:39:15.942Z,61.07
2022-08-17T05:41:46.299Z,61.57
2022-08-17T05:44:13.782Z,60.64
2022-08-17T05:46:43.954Z,60.00
2022-08-17T05:49:12.665Z,58.80
2022-08-17T05:52:24.850Z,56.36
2022-08-17T05:55:06.602Z,55.61
2022-08-17T05:57:56.081Z,50.46
2022-08-17T06:00:33.256Z,51.93
2022-08-17T06:03:19.805Z,51.58
2022-08-17T06:06:31.212Z,48.90
2022-08-17T06:09:33.872Z,45.67
2022-08-17T06:12:40.975Z,45.21
2022-08-17T06:15:35.692Z,41.29
2022-08-17T06:18:06.104Z,44.06
2022-08-17T06:20:51.599Z,39.73
2022-08-17T06:23:48.201Z,39.60
2022-08-17T06:26:21.492Z,37.41
2022-08-17T06:29:19.794Z,39.35
2022-08-17T06:31:47.266Z,43.83
2022-08-17T06:34:15.573Z,46.38
2022-08-17T06:37:10.242Z,45.83
2022-08-17T06:39:58.555Z,45.27
2022-08-17T06:43:02.111Z,43.20
2022-08-17T06:46:02.414Z,40.84
2022-08-17T06:48:38.238Z,39.94
2022-08-17T06:51:18.395Z,37.12
2022-08-17T06:54:05.403Z,39.57
2022-08-17T06:56:52.970Z,43.05
2022-08-17T06:59:34.824Z,42.61
2022-08-17T07:02:51.253Z,43.68
2022-08-17T07:05:23.382Z,44.85
2022-08-17T07:08:04.919Z,41.92
2022-08-17T07:10:43.059Z,38.93
2022-08-17T07:13:51.209Z,36.97
2022-08-17T07:16:32.427Z,35.57
2022-08-17T07:18:59.943Z,35.42
2022-08-17T07:21:47.608Z,34.71
2022-08-17T07:24:58.243Z,34.24
2022-08-17T07:27:30.982Z,33.08
2022-08-17T07:30:11.005Z,32.75
2022-08-17T07:32:59.082Z,33.35
2022-08-17T07:35:31.075Z,33.05
2022-08-17T07:38:24.691Z,33.07
2022-08-17T07:41:02.109Z,34.35
2022-08-17T07:43:41.058Z,31.50
2022-08-17T07:46:50.494Z,30.76
2022-08-17T07:49:34.300Z,30.56
2022-08-17T07:52:48.276Z,30.87
2022-08-17T07:55:42.919Z,32.40
2022-08-17T07:58:17.419Z,31.17
2022-08-17T08:00:45.538Z,29.88
2022-08-17T08:03:31.862Z,29.64
2022-08-17T08:06:02.022Z,29.93
2022-08-17T08:08:42.337Z,28.18
2022-08-17T08:11:12.540Z,27.74
2022-08-17T08:13:43.757Z,29.89
2022-08-17T08:16:17.149Z,29.89
2022-08-17T08:18:54.498Z,28.81
2022-08-17T08:21:36.906Z,30.85
2022-08-17T08:24:18.782Z,32.00
2022-08-17T08:26:57.047Z,33.70
2022-08-17T08:29:40.885Z,32.42
2022-08-17T08:32:31.890Z,33.20
2022-08-17T08:35:26.717Z,33.09
2022-08-17T08:38:25.490Z,35.27
2022-08-17T08:41:16.507Z,35.12
2022-08-17T08:45:01.248Z,37.28
2022-08-17T08:47:48.464Z,38.44
2022-08-17T08:50:40.287Z,39.35
2022-08-17T08:53:52.014Z,39.93
2022-08-17T08:57:11.504Z,40.66
2022-08-17T09:00:07.313Z,40.88
2022-08-17T09:03:20.699Z,40.95
2022-08-17T09:06:38.686Z,40.02
2022-08-17T09:09:40.764Z,39.90
2022-08-17T09:12:57.576Z,40.68
2022-08-17T09:15:35.169Z,42.09
2022-08-17T09:19:02.431Z,42.10
2022-08-17T09:21:49.939Z,41.82
2022-08-17T09:24:36.501Z,42.39
2022-08-17T09:27:21.430Z,42.99
2022-08-17T09:29:55.020Z,41.97
2022-08-17T09:32:33.123Z,42.05
2022-08-17T09:35:19.919Z,41.51
2022-08-17T09:38:18.174Z,40.44
2022-08-17T09:41:30.309Z,40.80
2022-08-17T09:44:24.090Z,40.64
2022-08-17T09:47:12.657Z,41.36
2022-08-17T09:49:50.794Z,41.15
2022-08-17T09:52:23.454Z,41.11
2022-08-17T09:54:52.866Z,42.29
2022-08-17T09:58:09.256Z,42.82
2022-08-17T10:00:41.450Z,41.29
2022-08-17T10:03:21.048Z,41.75
2022-08-17T10:06:09.577Z,40.89
2022-08-17T10:09:07.326Z,40.64
2022-08-17T10:12:15.676Z,41.73
2022-08-17T10:15:08.209Z,41.46
2022-08-17T10:18:08.743Z,43.36
2022-08-17T10:25:48.636Z,42.91
2022-08-17T10:28:25.835Z,42.52
2022-08-17T10:34:14.396Z,41.71
2022-08-17T10:36:59.146Z,41.33
2022-08-17T10:39:57.316Z,41.25
2022-08-17T10:42:37.868Z,40.52
2022-08-17T10:45:23.435Z,41.72
2022-08-17T10:48:06.228Z,41.85
2022-08-17T10:50:57.642Z,41.63
2022-08-17T10:53:33.434Z,41.38
2022-08-17T10:56:12.483Z,40.73
2022-08-17T10:58:58.186Z,41.18
2022-08-17T11:01:34.355Z,40.92
2022-08-17T11:04:21.227Z,41.59
2022-08-17T11:07:02.002Z,41.44
2022-08-17T11:09:36.045Z,41.66
2022-08-17T11:12:57.011Z,41.68
2022-08-17T11:15:47.377Z,41.37
2022-08-17T11:18:35.746Z,42.20
2022-08-17T11:21:50.317Z,42.39
2022-08-17T11:24:38.157Z,41.91
2022-08-17T11:27:14.103Z,42.04
2022-08-17T11:30:01.892Z,42.08
2022-08-17T11:32:54.468Z,42.69
2022-08-17T11:35:26.873Z,43.59
2022-08-17T11:38:36.100Z,43.68
2022-08-17T11:41:31.684Z,43.03
2022-08-17T11:44:37.785Z,42.31
2022-08-17T11:48:25.928Z,42.22
2022-08-17T11:51:42.157Z,42.22
2022-08-17T11:54:32.300Z,42.91
2022-08-17T11:57:27.685Z,42.72
2022-08-17T12:00:26.134Z,43.73
2022-08-17T12:03:26.617Z,44.42
2022-08-17T12:06:17.594Z,45.47
2022-08-17T12:08:55.381Z,45.37
2022-08-17T12:12:10.988Z,45.79
2022-08-17T12:15:09.101Z,45.67
2022-08-17T12:17:40.434Z,44.91
2022-08-17T12:20:24.084Z,44.27
2022-08-17T12:23:01.192Z,44.81
2022-08-17T12:25:39.953Z,44.38
2022-08-17T12:28:29.801Z,39.84
2022-08-17T12:31:03.946Z,37.35
2022-08-17T12:33:31.581Z,33.58
2022-08-17T12:36:06.308Z,33.12
2022-08-17T12:38:36.540Z,31.71
2022-08-17T12:41:28.274Z,31.65
2022-08-17T12:44:13.368Z,33.42
2022-08-17T12:46:55.410Z,35.20
2022-08-17T12:49:42.431Z,36.13
2022-08-17T12:52:26.650Z,36.22
2022-08-17T12:55:07.426Z,36.54
2022-08-17T12:57:48.696Z,36.76
2022-08-17T13:00:26.032Z,37.31
2022-08-17T13:03:02.374Z,37.55
2022-08-17T13:06:09.458Z,36.52
2022-08-17T13:08:43.330Z,37.78
2022-08-17T13:11:18.576Z,37.56
2022-08-17T13:13:56.396Z,34.94
2022-08-17T13:16:30.941Z,32.68
2022-08-17T13:19:15.003Z,30.89
2022-08-17T13:21:56.280Z,33.91
2022-08-17T13:24:29.165Z,34.74
2022-08-17T13:27:10.375Z,32.60
2022-08-17T13:29:39.841Z,32.52
2022-08-17T13:32:13.566Z,33.00
2022-08-17T13:35:12.559Z,34.45
2022-08-17T13:38:11.727Z,35.73
2022-08-17T13:40:50.664Z,34.45
2022-08-17T13:43:44.558Z,35.29
2022-08-17T13:46:19.679Z,36.25
2022-08-17T13:49:01.117Z,36.60
2022-08-17T13:51:33.917Z,35.39
2022-08-17T13:54:04.698Z,35.28
2022-08-17T13:56:49.970Z,33.82
2022-08-17T13:59:53.552Z,33.32
2022-08-17T14:02:20.754Z,34.69
2022-08-17T14:04:48.811Z,34.96
2022-08-17T14:07:16.085Z,34.65
2022-08-17T14:10:11.004Z,34.13
2022-08-17T14:12:41.367Z,32.83
2022-08-17T14:15:10.626Z,33.59
2022-08-17T14:17:39.051Z,33.06
2022-08-17T14:20:10.974Z,32.89
2022-08-17T14:22:41.120Z,32.93
2022-08-17T14:25:10.909Z,33.28
2022-08-17T14:27:43.599Z,32.67
2022-08-17T14:30:23.448Z,32.39
2022-08-17T14:32:52.208Z,32.70
2022-08-17T14:35:22.959Z,32.12
2022-08-17T14:37:51.978Z,31.73
2022-08-17T14:40:24.546Z,32.20
2022-08-17T14:42:53.462Z,32.49
2022-08-17T14:45:31.722Z,32.74
2022-08-17T14:48:07.562Z,32.12
2022-08-17T14:50:38.377Z,32.27
2022-08-17T14:53:12.616Z,32.03
2022-08-17T14:55:40.870Z,31.57
2022-08-17T14:58:09.149Z,31.96
2022-08-17T15:00:38.472Z,32.21
2022-08-17T15:03:05.716Z,32.18
2022-08-17T15:05:36.746Z,32.51
2022-08-17T15:08:05.776Z,32.31
2022-08-17T15:10:33.862Z,31.62
2022-08-17T15:13:01.180Z,32.67
2022-08-17T15:15:28.872Z,33.21
2022-08-17T15:17:56.315Z,32.47
2022-08-17T15:20:29.622Z,31.63
2022-08-17T15:22:58.885Z,32.44
2022-08-17T15:25:31.833Z,32.22
2022-08-17T15:28:00.387Z,32.22
2022-08-17T15:30:29.127Z,32.51
2022-08-17T15:32:58.599Z,33.42
2022-08-17T15:35:29.803Z,33.30
2022-08-17T15:38:10.794Z,33.98
2022-08-17T15:40:42.135Z,33.79
2022-08-17T15:43:13.941Z,34.13
2022-08-17T15:45:40.994Z,34.26
2022-08-17T15:48:08.910Z,34.42
2022-08-17T15:50:37.284Z,33.94
2022-08-17T15:53:04.881Z,33.97
2022-08-17T15:55:33.653Z,34.03
2022-08-17T15:58:01.241Z,34.75
2022-08-17T16:00:29.475Z,34.69
2022-08-17T16:03:45.755Z,34.30
2022-08-17T16:05:47.735Z,35.04
2022-08-17T16:08:20.207Z,35.03
2022-08-17T16:10:50.247Z,35.78
2022-08-17T16:13:19.136Z,36.20
2022-08-17T16:15:56.817Z,36.35
2022-08-17T16:18:30.815Z,36.36
2022-08-17T16:21:25.137Z,36.74
2022-08-17T16:23:56.176Z,37.09
2022-08-17T16:26:23.331Z,37.41
2022-08-17T16:28:51.301Z,37.29
2022-08-17T16:31:18.888Z,37.49
2022-08-17T16:34:15.573Z,37.74
2022-08-17T16:36:35.519Z,37.91
2022-08-17T16:39:02.500Z,38.12
2022-08-17T16:41:45.105Z,38.36
2022-08-17T16:44:18.694Z,38.99
2022-08-17T16:46:47.426Z,39.49
2022-08-17T16:49:36.039Z,39.53
2022-08-17T16:52:05.999Z,39.97
2022-08-17T16:54:33.471Z,40.04
2022-08-17T16:57:00.427Z,40.26
2022-08-17T16:59:38.773Z,40.37
2022-08-17T17:02:11.021Z,40.18
2022-08-17T17:04:59.359Z,40.29
2022-08-17T17:07:44.382Z,41.12
2022-08-17T17:10:19.972Z,41.51
2022-08-17T17:13:03.236Z,41.55
2022-08-17T17:16:24.051Z,42.36
2022-08-17T17:19:12.334Z,42.58
2022-08-17T17:21:47.330Z,42.82
2022-08-17T17:24:38.978Z,42.74
2022-08-17T17:28:00.600Z,43.65
2022-08-17T17:30:57.038Z,45.43
2022-08-17T17:33:40.801Z,44.67
2022-08-17T17:36:26.588Z,45.25
2022-08-17T17:39:08.503Z,44.96
2022-08-17T17:41:51.671Z,45.00
2022-08-17T17:44:28.790Z,45.18
2022-08-17T17:47:00.264Z,45.46
2022-08-17T17:49:33.700Z,45.87
2022-08-17T17:52:22.786Z,46.09
2022-08-17T17:55:19.039Z,46.33
2022-08-17T17:58:17.835Z,46.47
2022-08-17T18:00:57.891Z,46.80
2022-08-17T18:04:01.619Z,48.04
2022-08-17T18:07:11.106Z,48.37
2022-08-17T18:10:05.627Z,48.43
2022-08-17T18:13:03.642Z,48.33
2022-08-17T18:15:42.144Z,48.79
2022-08-17T18:18:11.778Z,48.99
2022-08-17T18:20:46.573Z,49.38
2022-08-17T18:23:27.077Z,50.84
2022-08-17T18:25:58.709Z,52.12
2022-08-17T18:28:52.863Z,52.87
2022-08-17T18:31:21.883Z,52.78
2022-08-17T18:33:52.415Z,53.60
2022-08-17T18:36:45.893Z,54.32
2022-08-17T18:39:23.529Z,55.12
2022-08-17T18:41:57.946Z,55.75
2022-08-17T18:44:35.505Z,56.43
2022-08-17T18:47:15.077Z,57.34
2022-08-17T18:50:20.936Z,57.25
2022-08-17T18:52:48.641Z,57.20
2022-08-17T18:55:22.132Z,58.36
2022-08-17T18:58:15.139Z,58.55
2022-08-17T19:00:46.218Z,58.52
2022-08-17T19:03:25.090Z,58.33
2022-08-17T19:06:34.396Z,58.29
2022-08-17T19:09:01.785Z,58.46
2022-08-17T19:11:36.278Z,59.63
2022-08-17T19:14:08.291Z,59.88
2022-08-17T19:16:53.762Z,60.78
2022-08-17T19:19:33.013Z,62.24
2022-08-17T19:22:28.660Z,61.72
2022-08-17T19:25:16.018Z,61.92
2022-08-17T19:27:57.504Z,61.88
2022-08-17T19:30:25.797Z,62.22
2022-08-17T19:32:53.313Z,61.56
2022-08-17T19:35:22.142Z,61.60
2022-08-17T19:38:06.147Z,62.08
2022-08-17T19:41:12.155Z,62.75
2022-08-17T19:43:42.251Z,63.59
2022-08-17T19:46:18.512Z,63.63
2022-08-17T19:49:12.024Z,63.59
2022-08-17T19:51:43.058Z,64.01
2022-08-17T19:54:56.076Z,63.88
2022-08-17T19:57:47.746Z,64.55
2022-08-17T20:00:17.430Z,64.95
2022-08-17T20:03:08.629Z,64.55
2022-08-17T20:06:11.553Z,67.89
2022-08-17T20:08:49.415Z,69.09
2022-08-17T20:11:21.891Z,70.01
2022-08-17T20:14:10.658Z,68.84
2022-08-17T20:16:38.090Z,69.05
2022-08-17T20:19:10.844Z,67.06
2022-08-17T20:21:48.670Z,67.75
2022-08-17T20:24:22.951Z,66.05
2022-08-17T20:26:59.333Z,68.91
2022-08-17T20:29:40.414Z,69.60
2022-08-17T20:32:20.855Z,70.59
2022-08-17T20:34:48.625Z,71.17
2022-08-17T20:37:15.912Z,71.44
2022-08-17T20:40:09.302Z,72.31
2022-08-17T20:42:37.512Z,72.29
2022-08-17T20:45:26.449Z,72.76
2022-08-17T20:48:27.262Z,72.88
2022-08-17T20:50:53.024Z,72.74
2022-08-17T20:53:57.997Z,72.56
2022-08-17T20:56:43.474Z,72.38
2022-08-17T20:59:25.876Z,72.54
2022-08-17T21:02:18.689Z,73.21
2022-08-17T21:04:47.266Z,73.10
2022-08-17T21:07:42.932Z,73.07
2022-08-17T21:10:26.269Z,73.47
2022-08-17T21:13:13.388Z,73.69
2022-08-17T21:15:53.356Z,74.14
2022-08-17T21:18:38.955Z,74.12
2022-08-17T21:21:21.450Z,74.11
2022-08-17T21:24:10.168Z,73.38
2022-08-17T21:26:58.321Z,73.35
2022-08-17T21:29:31.488Z,73.57
2022-08-17T21:32:03.128Z,73.52
2022-08-17T21:34:43.254Z,74.00
2022-08-17T21:37:19.844Z,73.27
2022-08-17T21:40:14.909Z,73.16
2022-08-17T21:42:55.515Z,72.55
2022-08-17T21:45:28.027Z,72.65
2022-08-17T21:48:14.999Z,72.52
2022-08-17T21:50:45.164Z,72.42
2022-08-17T21:53:23.792Z,72.55
2022-08-17T21:55:53.436Z,72.08
2022-08-17T21:58:32.812Z,72.16
2022-08-17T22:01:26.641Z,72.32
2022-08-17T22:04:11.495Z,73.60
2022-08-17T22:06:41.722Z,75.39
2022-08-17T22:09:22.455Z,76.24
2022-08-17T22:12:03.662Z,77.42
2022-08-17T22:14:53.471Z,77.29
2022-08-17T22:17:25.478Z,77.29
2022-08-17T22:19:57.951Z,76.89
2022-08-17T22:22:29.437Z,78.25
2022-08-17T22:25:07.684Z,81.08
2022-08-17T22:27:45.704Z,84.82
2022-08-17T22:30:42.496Z,80.16
2022-08-17T22:33:41.900Z,76.80
2022-08-17T22:36:31.063Z,74.38
2022-08-17T22:39:40.376Z,68.62
2022-08-17T22:42:14.431Z,70.58
2022-08-17T22:44:51.098Z,71.80
2022-08-17T22:47:18.914Z,72.29
2022-08-17T22:49:53.458Z,73.63
2022-08-17T22:53:01.623Z,75.55
2022-08-17T22:55:50.570Z,76.59
2022-08-17T22:58:42.937Z,79.12
2022-08-17T23:01:33.210Z,82.97
2022-08-17T23:04:11.591Z,83.44
2022-08-17T23:06:43.726Z,85.84
2022-08-17T23:09:10.721Z,87.34
2022-08-17T23:11:51.232Z,87.53
2022-08-17T23:14:22.413Z,87.88
2022-08-17T23:16:53.033Z,87.96
2022-08-17T23:19:21.698Z,86.85
2022-08-17T23:21:50.443Z,87.46
2022-08-17T23:24:25.444Z,88.41
2022-08-17T23:26:53.943Z,95.30
2022-08-17T23:29:21.537Z,100.00
2022-08-17T23:31:50.449Z,100.00
2022-08-17T23:34:18.575Z,100.00
2022-08-17T23:36:50.672Z,100.00
2022-08-17T23:39:24.641Z,100.00
2022-08-17T23:41:59.349Z,100.00
2022-08-17T23:44:28.715Z,100.00
2022-08-17T23:46:56.420Z,100.00
2022-08-17T23:49:25.017Z,100.00
2022-08-17T23:51:55.071Z,100.00
2022-08-17T23:54:33.598Z,100.00
2022-08-17T23:57:02.227Z,100.00
2022-08-17T23:59:29.675Z,100.00
